sensor_id;sensor_type;location;lat;lon;timestamp;P1;durP1;ratioP1;P2;durP2;ratioP2
53801;SDS011;39709;53.334;6.534;2022-08-05T00:01:13;7.97;;;2.60;;
53801;SDS011;39709;53.334;6.534;2022-08-05T00:03:44;8.80;;;3.38;;
53801;SDS011;39709;53.334;6.534;2022-08-05T00:06:10;7.07;;;3.17;;
53801;SDS011;39709;53.334;6.534;2022-08-05T00:08:37;9.47;;;2.77;;
53801;SDS011;39709;53.334;6.534;2022-08-05T00:11:07;7.80;;;2.88;;
53801;SDS011;39709;53.334;6.534;2022-08-05T00:13:35;7.95;;;2.30;;
53801;SDS011;39709;53.334;6.534;2022-08-05T00:16:02;8.15;;;2.70;;
53801;SDS011;39709;53.334;6.534;2022-08-05T00:18:28;7.35;;;2.33;;
53801;SDS011;39709;53.334;6.534;2022-08-05T00:20:54;7.50;;;2.60;;
53801;SDS011;39709;53.334;6.534;2022-08-05T00:23:20;9.80;;;2.88;;
53801;SDS011;39709;53.334;6.534;2022-08-05T00:25:46;8.07;;;2.80;;
53801;SDS011;39709;53.334;6.534;2022-08-05T00:28:12;7.20;;;2.40;;
53801;SDS011;39709;53.334;6.534;2022-08-05T00:30:38;8.00;;;2.78;;
53801;SDS011;39709;53.334;6.534;2022-08-05T00:33:04;6.50;;;2.47;;
53801;SDS011;39709;53.334;6.534;2022-08-05T00:35:30;9.83;;;2.83;;
53801;SDS011;39709;53.334;6.534;2022-08-05T00:37:55;6.63;;;2.90;;
53801;SDS011;39709;53.334;6.534;2022-08-05T00:40:22;6.75;;;2.80;;
53801;SDS011;39709;53.334;6.534;2022-08-05T00:42:49;10.63;;;2.70;;
53801;SDS011;39709;53.334;6.534;2022-08-05T00:45:15;8.30;;;3.10;;
53801;SDS011;39709;53.334;6.534;2022-08-05T00:47:40;10.02;;;2.83;;
53801;SDS011;39709;53.334;6.534;2022-08-05T00:50:07;11.73;;;3.30;;
53801;SDS011;39709;53.334;6.534;2022-08-05T00:52:33;7.28;;;2.85;;
53801;SDS011;39709;53.334;6.534;2022-08-05T00:54:59;9.82;;;2.97;;
53801;SDS011;39709;53.334;6.534;2022-08-05T00:57:25;9.87;;;3.10;;
53801;SDS011;39709;53.334;6.534;2022-08-05T00:59:51;8.63;;;3.08;;
53801;SDS011;39709;53.334;6.534;2022-08-05T01:02:17;8.37;;;2.97;;
53801;SDS011;39709;53.334;6.534;2022-08-05T01:04:42;9.13;;;3.17;;
53801;SDS011;39709;53.334;6.534;2022-08-05T01:07:08;10.63;;;3.10;;
53801;SDS011;39709;53.334;6.534;2022-08-05T01:09:34;7.38;;;2.97;;
53801;SDS011;39709;53.334;6.534;2022-08-05T01:12:02;10.37;;;3.10;;
53801;SDS011;39709;53.334;6.534;2022-08-05T01:14:34;7.37;;;2.70;;
53801;SDS011;39709;53.334;6.534;2022-08-05T01:17:08;7.82;;;2.92;;
53801;SDS011;39709;53.334;6.534;2022-08-05T01:19:44;9.23;;;2.92;;
53801;SDS011;39709;53.334;6.534;2022-08-05T01:27:59;8.93;;;2.83;;
53801;SDS011;39709;53.334;6.534;2022-08-05T01:30:43;8.20;;;2.53;;
53801;SDS011;39709;53.334;6.534;2022-08-05T01:33:16;8.20;;;2.70;;
53801;SDS011;39709;53.334;6.534;2022-08-05T01:35:45;6.95;;;2.50;;
53801;SDS011;39709;53.334;6.534;2022-08-05T01:38:13;10.73;;;2.88;;
53801;SDS011;39709;53.334;6.534;2022-08-05T01:40:41;9.03;;;3.40;;
53801;SDS011;39709;53.334;6.534;2022-08-05T01:43:07;6.43;;;2.70;;
53801;SDS011;39709;53.334;6.534;2022-08-05T01:45:35;9.45;;;2.72;;
53801;SDS011;39709;53.334;6.534;2022-08-05T01:48:03;8.60;;;2.95;;
53801;SDS011;39709;53.334;6.534;2022-08-05T01:50:33;10.05;;;2.95;;
53801;SDS011;39709;53.334;6.534;2022-08-05T01:53:03;9.50;;;2.83;;
53801;SDS011;39709;53.334;6.534;2022-08-05T01:55:33;9.63;;;2.78;;
53801;SDS011;39709;53.334;6.534;2022-08-05T01:58:00;8.68;;;3.25;;
53801;SDS011;39709;53.334;6.534;2022-08-05T02:00:30;8.98;;;3.47;;
53801;SDS011;39709;53.334;6.534;2022-08-05T02:02:59;8.38;;;3.38;;
53801;SDS011;39709;53.334;6.534;2022-08-05T02:05:29;7.60;;;3.17;;
53801;SDS011;39709;53.334;6.534;2022-08-05T02:07:57;7.88;;;3.30;;
53801;SDS011;39709;53.334;6.534;2022-08-05T02:10:25;9.63;;;3.42;;
53801;SDS011;39709;53.334;6.534;2022-08-05T02:12:54;8.00;;;3.30;;
53801;SDS011;39709;53.334;6.534;2022-08-05T02:15:25;8.50;;;3.28;;
53801;SDS011;39709;53.334;6.534;2022-08-05T02:18:05;7.17;;;2.80;;
53801;SDS011;39709;53.334;6.534;2022-08-05T02:20:59;8.38;;;2.90;;
53801;SDS011;39709;53.334;6.534;2022-08-05T02:23:44;9.15;;;3.00;;
53801;SDS011;39709;53.334;6.534;2022-08-05T02:26:15;10.65;;;3.20;;
53801;SDS011;39709;53.334;6.534;2022-08-05T02:28:45;7.43;;;3.03;;
53801;SDS011;39709;53.334;6.534;2022-08-05T02:31:30;10.13;;;2.80;;
53801;SDS011;39709;53.334;6.534;2022-08-05T02:34:04;10.60;;;3.25;;
53801;SDS011;39709;53.334;6.534;2022-08-05T02:36:32;7.82;;;2.78;;
53801;SDS011;39709;53.334;6.534;2022-08-05T02:39:02;7.75;;;2.50;;
53801;SDS011;39709;53.334;6.534;2022-08-05T02:41:30;8.00;;;2.55;;
53801;SDS011;39709;53.334;6.534;2022-08-05T02:43:58;7.70;;;2.87;;
53801;SDS011;39709;53.334;6.534;2022-08-05T02:46:25;9.70;;;3.20;;
53801;SDS011;39709;53.334;6.534;2022-08-05T02:48:52;8.07;;;2.92;;
53801;SDS011;39709;53.334;6.534;2022-08-05T02:51:19;6.18;;;2.80;;
53801;SDS011;39709;53.334;6.534;2022-08-05T02:53:45;8.13;;;3.13;;
53801;SDS011;39709;53.334;6.534;2022-08-05T02:56:12;7.37;;;3.13;;
53801;SDS011;39709;53.334;6.534;2022-08-05T02:58:39;8.25;;;2.85;;
53801;SDS011;39709;53.334;6.534;2022-08-05T03:01:05;7.88;;;2.80;;
53801;SDS011;39709;53.334;6.534;2022-08-05T03:03:34;7.53;;;2.88;;
53801;SDS011;39709;53.334;6.534;2022-08-05T03:06:04;8.75;;;2.60;;
53801;SDS011;39709;53.334;6.534;2022-08-05T03:08:31;7.17;;;2.13;;
53801;SDS011;39709;53.334;6.534;2022-08-05T03:10:57;7.82;;;2.70;;
53801;SDS011;39709;53.334;6.534;2022-08-05T03:13:23;7.53;;;2.15;;
53801;SDS011;39709;53.334;6.534;2022-08-05T03:15:49;7.37;;;2.73;;
53801;SDS011;39709;53.334;6.534;2022-08-05T03:18:14;6.63;;;2.60;;
53801;SDS011;39709;53.334;6.534;2022-08-05T03:20:40;7.87;;;2.70;;
53801;SDS011;39709;53.334;6.534;2022-08-05T03:23:07;7.53;;;2.30;;
53801;SDS011;39709;53.334;6.534;2022-08-05T03:25:34;9.37;;;2.53;;
53801;SDS011;39709;53.334;6.534;2022-08-05T03:28:02;6.97;;;2.30;;
53801;SDS011;39709;53.334;6.534;2022-08-05T03:30:29;7.63;;;2.60;;
53801;SDS011;39709;53.334;6.534;2022-08-05T03:33:03;6.38;;;2.47;;
53801;SDS011;39709;53.334;6.534;2022-08-05T03:35:29;7.25;;;2.60;;
53801;SDS011;39709;53.334;6.534;2022-08-05T03:38:00;7.77;;;2.57;;
53801;SDS011;39709;53.334;6.534;2022-08-05T03:40:26;7.13;;;2.50;;
53801;SDS011;39709;53.334;6.534;2022-08-05T03:42:52;6.60;;;3.10;;
53801;SDS011;39709;53.334;6.534;2022-08-05T03:45:18;7.10;;;2.67;;
53801;SDS011;39709;53.334;6.534;2022-08-05T03:47:44;6.47;;;2.67;;
53801;SDS011;39709;53.334;6.534;2022-08-05T03:50:10;10.53;;;2.57;;
53801;SDS011;39709;53.334;6.534;2022-08-05T03:53:10;6.20;;;2.83;;
53801;SDS011;39709;53.334;6.534;2022-08-05T03:55:52;10.18;;;3.00;;
53801;SDS011;39709;53.334;6.534;2022-08-05T03:58:31;6.70;;;2.47;;
53801;SDS011;39709;53.334;6.534;2022-08-05T04:01:02;7.05;;;2.95;;
53801;SDS011;39709;53.334;6.534;2022-08-05T04:03:30;6.88;;;2.70;;
53801;SDS011;39709;53.334;6.534;2022-08-05T04:06:01;7.20;;;2.80;;
53801;SDS011;39709;53.334;6.534;2022-08-05T04:08:29;7.80;;;3.00;;
53801;SDS011;39709;53.334;6.534;2022-08-05T04:10:57;6.80;;;2.60;;
53801;SDS011;39709;53.334;6.534;2022-08-05T04:13:24;7.22;;;2.75;;
53801;SDS011;39709;53.334;6.534;2022-08-05T04:15:51;7.70;;;2.67;;
53801;SDS011;39709;53.334;6.534;2022-08-05T04:18:16;5.90;;;2.60;;
53801;SDS011;39709;53.334;6.534;2022-08-05T04:20:42;6.68;;;2.63;;
53801;SDS011;39709;53.334;6.534;2022-08-05T04:23:08;6.53;;;2.50;;
53801;SDS011;39709;53.334;6.534;2022-08-05T04:25:35;9.70;;;3.15;;
53801;SDS011;39709;53.334;6.534;2022-08-05T04:28:00;6.83;;;2.90;;
53801;SDS011;39709;53.334;6.534;2022-08-05T04:30:26;6.03;;;2.45;;
53801;SDS011;39709;53.334;6.534;2022-08-05T04:32:52;8.60;;;2.70;;
53801;SDS011;39709;53.334;6.534;2022-08-05T04:35:17;5.47;;;2.30;;
53801;SDS011;39709;53.334;6.534;2022-08-05T04:37:43;5.97;;;2.47;;
53801;SDS011;39709;53.334;6.534;2022-08-05T04:40:09;7.97;;;2.87;;
53801;SDS011;39709;53.334;6.534;2022-08-05T04:42:35;8.13;;;2.90;;
53801;SDS011;39709;53.334;6.534;2022-08-05T04:45:01;7.60;;;2.90;;
53801;SDS011;39709;53.334;6.534;2022-08-05T04:47:26;5.67;;;2.20;;
53801;SDS011;39709;53.334;6.534;2022-08-05T04:49:52;7.05;;;2.72;;
53801;SDS011;39709;53.334;6.534;2022-08-05T04:52:18;7.80;;;2.50;;
53801;SDS011;39709;53.334;6.534;2022-08-05T04:54:43;6.50;;;2.63;;
53801;SDS011;39709;53.334;6.534;2022-08-05T04:57:09;7.68;;;2.95;;
53801;SDS011;39709;53.334;6.534;2022-08-05T04:59:35;9.95;;;3.20;;
53801;SDS011;39709;53.334;6.534;2022-08-05T05:02:01;9.67;;;3.00;;
53801;SDS011;39709;53.334;6.534;2022-08-05T05:04:26;7.57;;;2.93;;
53801;SDS011;39709;53.334;6.534;2022-08-05T05:06:52;9.03;;;2.80;;
53801;SDS011;39709;53.334;6.534;2022-08-05T05:09:18;7.43;;;2.87;;
53801;SDS011;39709;53.334;6.534;2022-08-05T05:11:44;9.00;;;2.60;;
53801;SDS011;39709;53.334;6.534;2022-08-05T05:14:09;9.05;;;2.60;;
53801;SDS011;39709;53.334;6.534;2022-08-05T05:16:35;7.50;;;2.53;;
53801;SDS011;39709;53.334;6.534;2022-08-05T05:19:01;8.57;;;2.67;;
53801;SDS011;39709;53.334;6.534;2022-08-05T05:21:26;7.33;;;3.23;;
53801;SDS011;39709;53.334;6.534;2022-08-05T05:23:52;5.97;;;2.70;;
53801;SDS011;39709;53.334;6.534;2022-08-05T05:26:18;9.38;;;2.63;;
53801;SDS011;39709;53.334;6.534;2022-08-05T05:28:44;10.38;;;2.78;;
53801;SDS011;39709;53.334;6.534;2022-08-05T05:31:09;7.63;;;2.80;;
53801;SDS011;39709;53.334;6.534;2022-08-05T05:33:35;8.43;;;2.43;;
53801;SDS011;39709;53.334;6.534;2022-08-05T05:36:01;7.95;;;2.65;;
53801;SDS011;39709;53.334;6.534;2022-08-05T05:38:26;8.23;;;2.60;;
53801;SDS011;39709;53.334;6.534;2022-08-05T05:40:52;7.43;;;2.90;;
53801;SDS011;39709;53.334;6.534;2022-08-05T05:43:21;6.75;;;3.10;;
53801;SDS011;39709;53.334;6.534;2022-08-05T05:45:47;7.60;;;2.63;;
53801;SDS011;39709;53.334;6.534;2022-08-05T05:48:13;9.10;;;2.72;;
53801;SDS011;39709;53.334;6.534;2022-08-05T05:50:38;8.67;;;2.80;;
53801;SDS011;39709;53.334;6.534;2022-08-05T05:53:05;7.82;;;2.78;;
53801;SDS011;39709;53.334;6.534;2022-08-05T05:55:33;7.07;;;2.80;;
53801;SDS011;39709;53.334;6.534;2022-08-05T05:57:59;6.80;;;2.50;;
53801;SDS011;39709;53.334;6.534;2022-08-05T06:00:25;7.30;;;2.43;;
53801;SDS011;39709;53.334;6.534;2022-08-05T06:02:51;8.63;;;2.67;;
53801;SDS011;39709;53.334;6.534;2022-08-05T06:05:16;8.77;;;2.60;;
53801;SDS011;39709;53.334;6.534;2022-08-05T06:07:43;6.22;;;2.05;;
53801;SDS011;39709;53.334;6.534;2022-08-05T06:10:09;6.43;;;2.25;;
53801;SDS011;39709;53.334;6.534;2022-08-05T06:12:36;6.38;;;1.80;;
53801;SDS011;39709;53.334;6.534;2022-08-05T06:15:03;7.17;;;1.83;;
53801;SDS011;39709;53.334;6.534;2022-08-05T06:17:31;10.50;;;2.00;;
53801;SDS011;39709;53.334;6.534;2022-08-05T06:19:57;5.35;;;1.60;;
53801;SDS011;39709;53.334;6.534;2022-08-05T06:22:27;6.30;;;1.77;;
53801;SDS011;39709;53.334;6.534;2022-08-05T06:24:57;6.75;;;2.05;;
53801;SDS011;39709;53.334;6.534;2022-08-05T06:27:23;5.90;;;1.60;;
53801;SDS011;39709;53.334;6.534;2022-08-05T06:29:49;5.43;;;1.70;;
53801;SDS011;39709;53.334;6.534;2022-08-05T06:32:14;3.63;;;1.20;;
53801;SDS011;39709;53.334;6.534;2022-08-05T06:34:40;5.25;;;1.10;;
53801;SDS011;39709;53.334;6.534;2022-08-05T06:37:06;5.25;;;1.30;;
53801;SDS011;39709;53.334;6.534;2022-08-05T06:39:32;3.17;;;0.90;;
53801;SDS011;39709;53.334;6.534;2022-08-05T06:41:58;4.72;;;0.93;;
53801;SDS011;39709;53.334;6.534;2022-08-05T06:44:26;7.95;;;1.10;;
53801;SDS011;39709;53.334;6.534;2022-08-05T06:46:53;3.08;;;0.80;;
53801;SDS011;39709;53.334;6.534;2022-08-05T06:49:19;3.10;;;1.00;;
53801;SDS011;39709;53.334;6.534;2022-08-05T06:51:45;3.25;;;0.88;;
53801;SDS011;39709;53.334;6.534;2022-08-05T06:54:10;3.77;;;0.70;;
53801;SDS011;39709;53.334;6.534;2022-08-05T06:56:36;4.05;;;0.90;;
53801;SDS011;39709;53.334;6.534;2022-08-05T06:59:03;5.18;;;1.30;;
53801;SDS011;39709;53.334;6.534;2022-08-05T07:01:29;5.83;;;1.00;;
53801;SDS011;39709;53.334;6.534;2022-08-05T07:03:55;5.47;;;0.80;;
53801;SDS011;39709;53.334;6.534;2022-08-05T07:06:21;4.55;;;0.88;;
53801;SDS011;39709;53.334;6.534;2022-08-05T07:08:47;4.73;;;0.90;;
53801;SDS011;39709;53.334;6.534;2022-08-05T07:11:14;6.20;;;1.13;;
53801;SDS011;39709;53.334;6.534;2022-08-05T07:13:40;4.88;;;1.10;;
53801;SDS011;39709;53.334;6.534;2022-08-05T07:16:24;3.88;;;0.88;;
53801;SDS011;39709;53.334;6.534;2022-08-05T07:19:09;3.47;;;0.73;;
53801;SDS011;39709;53.334;6.534;2022-08-05T07:21:34;5.00;;;0.90;;
53801;SDS011;39709;53.334;6.534;2022-08-05T07:24:00;5.40;;;0.90;;
53801;SDS011;39709;53.334;6.534;2022-08-05T07:26:26;4.20;;;0.82;;
53801;SDS011;39709;53.334;6.534;2022-08-05T07:28:51;5.43;;;0.97;;
53801;SDS011;39709;53.334;6.534;2022-08-05T07:31:17;2.67;;;0.65;;
53801;SDS011;39709;53.334;6.534;2022-08-05T07:33:43;5.27;;;0.87;;
53801;SDS011;39709;53.334;6.534;2022-08-05T07:36:09;4.60;;;1.10;;
53801;SDS011;39709;53.334;6.534;2022-08-05T07:38:35;3.67;;;0.80;;
53801;SDS011;39709;53.334;6.534;2022-08-05T07:41:05;5.47;;;0.90;;
53801;SDS011;39709;53.334;6.534;2022-08-05T07:43:32;5.13;;;0.75;;
53801;SDS011;39709;53.334;6.534;2022-08-05T07:45:58;3.97;;;0.90;;
53801;SDS011;39709;53.334;6.534;2022-08-05T07:48:24;4.30;;;1.10;;
53801;SDS011;39709;53.334;6.534;2022-08-05T07:50:50;3.15;;;0.73;;
53801;SDS011;39709;53.334;6.534;2022-08-05T07:53:16;4.38;;;1.00;;
53801;SDS011;39709;53.334;6.534;2022-08-05T07:55:42;1.80;;;0.63;;
53801;SDS011;39709;53.334;6.534;2022-08-05T07:58:07;6.72;;;1.15;;
53801;SDS011;39709;53.334;6.534;2022-08-05T08:00:33;2.73;;;0.40;;
53801;SDS011;39709;53.334;6.534;2022-08-05T08:02:59;5.22;;;0.98;;
53801;SDS011;39709;53.334;6.534;2022-08-05T08:05:25;3.70;;;0.70;;
53801;SDS011;39709;53.334;6.534;2022-08-05T08:07:51;4.20;;;0.60;;
53801;SDS011;39709;53.334;6.534;2022-08-05T08:10:19;4.15;;;0.98;;
53801;SDS011;39709;53.334;6.534;2022-08-05T08:12:46;2.65;;;0.70;;
53801;SDS011;39709;53.334;6.534;2022-08-05T08:15:12;4.50;;;0.70;;
53801;SDS011;39709;53.334;6.534;2022-08-05T08:17:38;5.78;;;0.90;;
53801;SDS011;39709;53.334;6.534;2022-08-05T08:20:03;4.00;;;0.93;;
53801;SDS011;39709;53.334;6.534;2022-08-05T08:22:30;4.68;;;1.08;;
53801;SDS011;39709;53.334;6.534;2022-08-05T08:24:56;5.13;;;0.80;;
53801;SDS011;39709;53.334;6.534;2022-08-05T08:27:22;6.10;;;1.00;;
53801;SDS011;39709;53.334;6.534;2022-08-05T08:29:48;4.93;;;0.80;;
53801;SDS011;39709;53.334;6.534;2022-08-05T08:32:13;5.60;;;0.83;;
53801;SDS011;39709;53.334;6.534;2022-08-05T08:34:39;3.92;;;0.75;;
53801;SDS011;39709;53.334;6.534;2022-08-05T08:37:05;5.25;;;1.20;;
53801;SDS011;39709;53.334;6.534;2022-08-05T08:39:31;3.97;;;0.90;;
53801;SDS011;39709;53.334;6.534;2022-08-05T08:41:57;5.20;;;1.00;;
53801;SDS011;39709;53.334;6.534;2022-08-05T08:44:25;5.57;;;1.08;;
53801;SDS011;39709;53.334;6.534;2022-08-05T08:46:54;3.28;;;0.70;;
53801;SDS011;39709;53.334;6.534;2022-08-05T08:49:21;4.90;;;0.80;;
53801;SDS011;39709;53.334;6.534;2022-08-05T08:51:51;2.75;;;0.60;;
53801;SDS011;39709;53.334;6.534;2022-08-05T08:54:38;6.07;;;1.02;;
53801;SDS011;39709;53.334;6.534;2022-08-05T08:57:05;3.35;;;0.85;;
53801;SDS011;39709;53.334;6.534;2022-08-05T08:59:32;4.32;;;0.80;;
53801;SDS011;39709;53.334;6.534;2022-08-05T09:01:58;3.40;;;0.70;;
53801;SDS011;39709;53.334;6.534;2022-08-05T09:04:25;3.85;;;0.68;;
53801;SDS011;39709;53.334;6.534;2022-08-05T09:06:52;3.75;;;0.85;;
53801;SDS011;39709;53.334;6.534;2022-08-05T09:09:18;4.57;;;0.90;;
53801;SDS011;39709;53.334;6.534;2022-08-05T09:11:43;2.83;;;0.80;;
53801;SDS011;39709;53.334;6.534;2022-08-05T09:14:10;2.13;;;0.70;;
53801;SDS011;39709;53.334;6.534;2022-08-05T09:16:37;3.92;;;0.80;;
53801;SDS011;39709;53.334;6.534;2022-08-05T09:19:03;5.72;;;0.70;;
53801;SDS011;39709;53.334;6.534;2022-08-05T09:21:31;4.35;;;0.80;;
53801;SDS011;39709;53.334;6.534;2022-08-05T09:24:03;2.90;;;0.60;;
53801;SDS011;39709;53.334;6.534;2022-08-05T09:26:33;2.72;;;0.50;;
53801;SDS011;39709;53.334;6.534;2022-08-05T09:29:00;4.75;;;0.70;;
53801;SDS011;39709;53.334;6.534;2022-08-05T09:31:30;2.95;;;0.52;;
53801;SDS011;39709;53.334;6.534;2022-08-05T09:33:57;3.63;;;0.60;;
53801;SDS011;39709;53.334;6.534;2022-08-05T09:36:40;3.63;;;0.60;;
53801;SDS011;39709;53.334;6.534;2022-08-05T09:39:08;3.42;;;0.60;;
53801;SDS011;39709;53.334;6.534;2022-08-05T09:45:04;3.38;;;0.60;;
53801;SDS011;39709;53.334;6.534;2022-08-05T09:47:18;2.43;;;0.70;;
53801;SDS011;39709;53.334;6.534;2022-08-05T09:52:15;4.40;;;0.60;;
53801;SDS011;39709;53.334;6.534;2022-08-05T09:57:30;1.55;;;0.40;;
53801;SDS011;39709;53.334;6.534;2022-08-05T10:00:11;2.35;;;0.50;;
53801;SDS011;39709;53.334;6.534;2022-08-05T10:02:47;2.80;;;0.60;;
53801;SDS011;39709;53.334;6.534;2022-08-05T10:05:18;2.08;;;0.60;;
53801;SDS011;39709;53.334;6.534;2022-08-05T10:10:16;2.17;;;0.60;;
53801;SDS011;39709;53.334;6.534;2022-08-05T10:12:44;3.33;;;0.52;;
53801;SDS011;39709;53.334;6.534;2022-08-05T10:15:25;1.55;;;0.40;;
53801;SDS011;39709;53.334;6.534;2022-08-05T10:23:11;3.10;;;0.50;;
53801;SDS011;39709;53.334;6.534;2022-08-05T10:25:38;2.92;;;0.55;;
53801;SDS011;39709;53.334;6.534;2022-08-05T10:28:04;1.80;;;0.40;;
53801;SDS011;39709;53.334;6.534;2022-08-05T10:30:30;3.20;;;0.57;;
53801;SDS011;39709;53.334;6.534;2022-08-05T10:32:57;2.40;;;0.40;;
53801;SDS011;39709;53.334;6.534;2022-08-05T10:35:24;2.00;;;0.40;;
53801;SDS011;39709;53.334;6.534;2022-08-05T10:37:50;1.85;;;0.40;;
53801;SDS011;39709;53.334;6.534;2022-08-05T10:40:18;2.08;;;0.50;;
53801;SDS011;39709;53.334;6.534;2022-08-05T10:42:52;2.08;;;0.50;;
53801;SDS011;39709;53.334;6.534;2022-08-05T10:45:26;1.90;;;0.40;;
53801;SDS011;39709;53.334;6.534;2022-08-05T10:47:54;2.55;;;0.50;;
53801;SDS011;39709;53.334;6.534;2022-08-05T10:50:20;2.95;;;0.30;;
53801;SDS011;39709;53.334;6.534;2022-08-05T10:52:47;4.10;;;0.60;;
53801;SDS011;39709;53.334;6.534;2022-08-05T10:55:24;3.40;;;0.47;;
53801;SDS011;39709;53.334;6.534;2022-08-05T10:58:08;4.32;;;0.60;;
53801;SDS011;39709;53.334;6.534;2022-08-05T11:00:35;4.20;;;0.55;;
53801;SDS011;39709;53.334;6.534;2022-08-05T11:05:30;3.08;;;0.40;;
53801;SDS011;39709;53.334;6.534;2022-08-05T11:08:03;2.13;;;0.40;;
53801;SDS011;39709;53.334;6.534;2022-08-05T11:10:31;3.78;;;0.40;;
53801;SDS011;39709;53.334;6.534;2022-08-05T11:12:59;5.13;;;0.50;;
53801;SDS011;39709;53.334;6.534;2022-08-05T11:15:28;2.13;;;0.40;;
53801;SDS011;39709;53.334;6.534;2022-08-05T11:18:14;2.00;;;0.50;;
53801;SDS011;39709;53.334;6.534;2022-08-05T11:20:49;6.00;;;0.47;;
53801;SDS011;39709;53.334;6.534;2022-08-05T11:23:35;3.75;;;0.50;;
53801;SDS011;39709;53.334;6.534;2022-08-05T11:28:45;2.13;;;0.50;;
53801;SDS011;39709;53.334;6.534;2022-08-05T11:33:39;2.80;;;0.70;;
53801;SDS011;39709;53.334;6.534;2022-08-05T11:36:20;2.50;;;0.40;;
53801;SDS011;39709;53.334;6.534;2022-08-05T11:39:08;5.20;;;0.47;;
53801;SDS011;39709;53.334;6.534;2022-08-05T11:41:36;2.27;;;0.40;;
53801;SDS011;39709;53.334;6.534;2022-08-05T11:44:09;3.42;;;0.50;;
53801;SDS011;39709;53.334;6.534;2022-08-05T11:46:37;1.77;;;0.40;;
53801;SDS011;39709;53.334;6.534;2022-08-05T11:49:04;3.15;;;0.55;;
53801;SDS011;39709;53.334;6.534;2022-08-05T11:51:31;2.13;;;0.40;;
53801;SDS011;39709;53.334;6.534;2022-08-05T11:53:58;1.93;;;0.40;;
53801;SDS011;39709;53.334;6.534;2022-08-05T11:56:25;1.88;;;0.50;;
53801;SDS011;39709;53.334;6.534;2022-08-05T11:59:18;3.10;;;0.60;;
53801;SDS011;39709;53.334;6.534;2022-08-05T12:04:42;3.92;;;0.60;;
53801;SDS011;39709;53.334;6.534;2022-08-05T12:07:10;1.73;;;0.50;;
53801;SDS011;39709;53.334;6.534;2022-08-05T12:09:41;3.85;;;0.50;;
53801;SDS011;39709;53.334;6.534;2022-08-05T12:12:11;3.30;;;0.40;;
53801;SDS011;39709;53.334;6.534;2022-08-05T12:14:41;2.43;;;0.40;;
53801;SDS011;39709;53.334;6.534;2022-08-05T12:19:39;2.67;;;0.50;;
53801;SDS011;39709;53.334;6.534;2022-08-05T12:22:26;2.57;;;0.50;;
53801;SDS011;39709;53.334;6.534;2022-08-05T12:24:55;5.97;;;0.50;;
53801;SDS011;39709;53.334;6.534;2022-08-05T12:27:25;5.07;;;0.73;;
53801;SDS011;39709;53.334;6.534;2022-08-05T12:32:42;1.95;;;0.40;;
53801;SDS011;39709;53.334;6.534;2022-08-05T12:35:10;5.93;;;0.50;;
53801;SDS011;39709;53.334;6.534;2022-08-05T12:37:36;1.98;;;0.40;;
53801;SDS011;39709;53.334;6.534;2022-08-05T12:40:02;3.15;;;0.50;;
53801;SDS011;39709;53.334;6.534;2022-08-05T12:42:34;5.50;;;0.57;;
53801;SDS011;39709;53.334;6.534;2022-08-05T12:45:01;4.45;;;0.60;;
53801;SDS011;39709;53.334;6.534;2022-08-05T12:47:32;3.40;;;0.40;;
53801;SDS011;39709;53.334;6.534;2022-08-05T12:49:58;3.30;;;0.40;;
53801;SDS011;39709;53.334;6.534;2022-08-05T12:52:25;3.65;;;0.68;;
53801;SDS011;39709;53.334;6.534;2022-08-05T12:54:51;2.00;;;0.30;;
53801;SDS011;39709;53.334;6.534;2022-08-05T12:57:17;5.63;;;0.40;;
53801;SDS011;39709;53.334;6.534;2022-08-05T12:59:44;3.22;;;0.40;;
53801;SDS011;39709;53.334;6.534;2022-08-05T13:02:14;3.03;;;0.50;;
53801;SDS011;39709;53.334;6.534;2022-08-05T13:04:43;3.35;;;0.60;;
53801;SDS011;39709;53.334;6.534;2022-08-05T13:07:21;2.63;;;0.50;;
53801;SDS011;39709;53.334;6.534;2022-08-05T13:09:55;3.10;;;0.45;;
53801;SDS011;39709;53.334;6.534;2022-08-05T13:12:23;3.83;;;0.75;;
53801;SDS011;39709;53.334;6.534;2022-08-05T13:14:50;2.60;;;0.60;;
53801;SDS011;39709;53.334;6.534;2022-08-05T13:17:24;4.55;;;0.60;;
53801;SDS011;39709;53.334;6.534;2022-08-05T13:20:10;2.23;;;0.43;;
53801;SDS011;39709;53.334;6.534;2022-08-05T13:22:46;3.50;;;0.43;;
53801;SDS011;39709;53.334;6.534;2022-08-05T13:25:14;3.72;;;0.60;;
53801;SDS011;39709;53.334;6.534;2022-08-05T13:27:41;3.70;;;0.50;;
53801;SDS011;39709;53.334;6.534;2022-08-05T13:30:11;2.53;;;0.50;;
53801;SDS011;39709;53.334;6.534;2022-08-05T13:32:39;4.93;;;0.50;;
53801;SDS011;39709;53.334;6.534;2022-08-05T13:35:05;2.20;;;0.40;;
53801;SDS011;39709;53.334;6.534;2022-08-05T13:37:33;1.95;;;0.40;;
53801;SDS011;39709;53.334;6.534;2022-08-05T13:40:00;3.38;;;0.40;;
53801;SDS011;39709;53.334;6.534;2022-08-05T13:42:25;2.47;;;0.50;;
53801;SDS011;39709;53.334;6.534;2022-08-05T13:44:52;4.15;;;0.57;;
53801;SDS011;39709;53.334;6.534;2022-08-05T13:47:18;3.13;;;0.63;;
53801;SDS011;39709;53.334;6.534;2022-08-05T13:49:45;2.00;;;0.50;;
53801;SDS011;39709;53.334;6.534;2022-08-05T13:52:11;4.78;;;0.70;;
53801;SDS011;39709;53.334;6.534;2022-08-05T13:54:39;11.57;;;1.00;;
53801;SDS011;39709;53.334;6.534;2022-08-05T13:57:06;14.10;;;4.20;;
53801;SDS011;39709;53.334;6.534;2022-08-05T13:59:32;6.70;;;0.95;;
53801;SDS011;39709;53.334;6.534;2022-08-05T14:01:58;12.40;;;1.03;;
53801;SDS011;39709;53.334;6.534;2022-08-05T14:04:32;6.63;;;0.70;;
53801;SDS011;39709;53.334;6.534;2022-08-05T14:07:21;7.78;;;0.80;;
53801;SDS011;39709;53.334;6.534;2022-08-05T14:09:48;7.03;;;0.90;;
53801;SDS011;39709;53.334;6.534;2022-08-05T14:12:14;5.00;;;0.60;;
53801;SDS011;39709;53.334;6.534;2022-08-05T14:14:40;5.07;;;0.52;;
53801;SDS011;39709;53.334;6.534;2022-08-05T14:17:05;5.33;;;0.73;;
53801;SDS011;39709;53.334;6.534;2022-08-05T14:19:31;7.80;;;0.80;;
53801;SDS011;39709;53.334;6.534;2022-08-05T14:21:57;6.65;;;0.70;;
53801;SDS011;39709;53.334;6.534;2022-08-05T14:24:23;8.70;;;1.30;;
53801;SDS011;39709;53.334;6.534;2022-08-05T14:26:48;7.13;;;0.68;;
53801;SDS011;39709;53.334;6.534;2022-08-05T14:29:14;2.83;;;0.50;;
53801;SDS011;39709;53.334;6.534;2022-08-05T14:31:40;4.78;;;0.52;;
53801;SDS011;39709;53.334;6.534;2022-08-05T14:34:05;5.17;;;0.50;;
53801;SDS011;39709;53.334;6.534;2022-08-05T14:36:31;5.10;;;0.63;;
53801;SDS011;39709;53.334;6.534;2022-08-05T14:38:57;4.97;;;0.47;;
53801;SDS011;39709;53.334;6.534;2022-08-05T14:41:22;4.67;;;0.60;;
53801;SDS011;39709;53.334;6.534;2022-08-05T14:43:48;8.60;;;0.93;;
53801;SDS011;39709;53.334;6.534;2022-08-05T14:46:18;4.80;;;0.50;;
53801;SDS011;39709;53.334;6.534;2022-08-05T14:48:44;3.23;;;0.43;;
53801;SDS011;39709;53.334;6.534;2022-08-05T14:51:12;5.47;;;0.50;;
53801;SDS011;39709;53.334;6.534;2022-08-05T14:53:38;5.13;;;0.50;;
53801;SDS011;39709;53.334;6.534;2022-08-05T14:56:03;3.53;;;0.60;;
53801;SDS011;39709;53.334;6.534;2022-08-05T14:58:29;5.43;;;0.50;;
53801;SDS011;39709;53.334;6.534;2022-08-05T15:00:55;3.23;;;0.40;;
53801;SDS011;39709;53.334;6.534;2022-08-05T15:03:21;4.60;;;0.50;;
53801;SDS011;39709;53.334;6.534;2022-08-05T15:05:46;3.97;;;1.00;;
53801;SDS011;39709;53.334;6.534;2022-08-05T15:08:12;4.68;;;0.52;;
53801;SDS011;39709;53.334;6.534;2022-08-05T15:10:38;3.60;;;0.50;;
53801;SDS011;39709;53.334;6.534;2022-08-05T15:13:05;2.65;;;0.50;;
53801;SDS011;39709;53.334;6.534;2022-08-05T15:15:31;3.20;;;0.60;;
53801;SDS011;39709;53.334;6.534;2022-08-05T15:17:56;8.10;;;0.60;;
53801;SDS011;39709;53.334;6.534;2022-08-05T15:20:22;4.10;;;0.90;;
53801;SDS011;39709;53.334;6.534;2022-08-05T15:22:49;5.32;;;0.90;;
53801;SDS011;39709;53.334;6.534;2022-08-05T15:25:15;4.07;;;0.52;;
53801;SDS011;39709;53.334;6.534;2022-08-05T15:27:41;2.25;;;0.47;;
53801;SDS011;39709;53.334;6.534;2022-08-05T15:30:07;4.90;;;0.70;;
53801;SDS011;39709;53.334;6.534;2022-08-05T15:32:34;4.32;;;0.70;;